sensor_id;sensor_type;location;lat;lon;timestamp;temperature;humidity
6581;DHT22;3324;50.796;7.228;2023-06-10T00:01:42;20.40;99.90
6581;DHT22;3324;50.796;7.228;2023-06-10T00:04:08;20.30;99.90
6581;DHT22;3324;50.796;7.228;2023-06-10T00:06:34;20.30;99.90
6581;DHT22;3324;50.796;7.228;2023-06-10T00:09:05;20.20;99.90
6581;DHT22;3324;50.796;7.228;2023-06-10T00:11:32;20.10;99.90
6581;DHT22;3324;50.796;7.228;2023-06-10T00:13:58;20.20;99.90
6581;DHT22;3324;50.796;7.228;2023-06-10T00:16:23;20.20;99.90
6581;DHT22;3324;50.796;7.228;2023-06-10T00:18:49;20.10;99.90
6581;DHT22;3324;50.796;7.228;2023-06-10T00:21:16;20.10;99.90
6581;DHT22;3324;50.796;7.228;2023-06-10T00:23:42;20.20;99.90
6581;DHT22;3324;50.796;7.228;2023-06-10T00:26:07;20.20;99.90
6581;DHT22;3324;50.796;7.228;2023-06-10T00:28:33;20.20;99.90
6581;DHT22;3324;50.796;7.228;2023-06-10T00:30:59;20.20;99.90
6581;DHT22;3324;50.796;7.228;2023-06-10T00:33:24;20.20;99.90
6581;DHT22;3324;50.796;7.228;2023-06-10T00:35:50;20.20;99.90
6581;DHT22;3324;50.796;7.228;2023-06-10T00:38:16;20.10;99.90
6581;DHT22;3324;50.796;7.228;2023-06-10T00:40:41;20.10;99.90
6581;DHT22;3324;50.796;7.228;2023-06-10T00:43:07;20.00;99.90
6581;DHT22;3324;50.796;7.228;2023-06-10T00:45:33;20.00;99.90
6581;DHT22;3324;50.796;7.228;2023-06-10T00:48:00;19.90;99.90
6581;DHT22;3324;50.796;7.228;2023-06-10T00:50:26;19.90;99.90
6581;DHT22;3324;50.796;7.228;2023-06-10T00:52:53;19.90;99.90
6581;DHT22;3324;50.796;7.228;2023-06-10T00:55:20;19.90;99.90
6581;DHT22;3324;50.796;7.228;2023-06-10T00:57:46;19.80;99.90
6581;DHT22;3324;50.796;7.228;2023-06-10T01:00:14;19.90;99.90
6581;DHT22;3324;50.796;7.228;2023-06-10T01:02:40;19.80;99.90
6581;DHT22;3324;50.796;7.228;2023-06-10T01:05:06;19.80;99.90
6581;DHT22;3324;50.796;7.228;2023-06-10T01:10:11;19.80;99.90
6581;DHT22;3324;50.796;7.228;2023-06-10T01:12:41;19.70;99.90
6581;DHT22;3324;50.796;7.228;2023-06-10T01:15:17;19.60;99.90
6581;DHT22;3324;50.796;7.228;2023-06-10T01:17:56;19.60;99.90
6581;DHT22;3324;50.796;7.228;2023-06-10T01:23:44;19.60;99.90
6581;DHT22;3324;50.796;7.228;2023-06-10T01:26:11;19.50;99.90
6581;DHT22;3324;50.796;7.228;2023-06-10T01:28:54;19.50;99.90
6581;DHT22;3324;50.796;7.228;2023-06-10T01:31:42;19.40;99.90
6581;DHT22;3324;50.796;7.228;2023-06-10T01:34:11;19.40;99.90
6581;DHT22;3324;50.796;7.228;2023-06-10T01:36:38;19.30;99.90
6581;DHT22;3324;50.796;7.228;2023-06-10T01:39:05;19.30;99.90
6581;DHT22;3324;50.796;7.228;2023-06-10T01:41:32;19.30;99.90
6581;DHT22;3324;50.796;7.228;2023-06-10T01:43:58;19.20;99.90
6581;DHT22;3324;50.796;7.228;2023-06-10T01:46:24;19.20;99.90
6581;DHT22;3324;50.796;7.228;2023-06-10T01:48:49;19.20;99.90
6581;DHT22;3324;50.796;7.228;2023-06-10T01:51:15;19.20;99.90
6581;DHT22;3324;50.796;7.228;2023-06-10T01:53:41;19.20;99.90
6581;DHT22;3324;50.796;7.228;2023-06-10T01:56:06;19.20;99.90
6581;DHT22;3324;50.796;7.228;2023-06-10T01:58:32;19.10;99.90
6581;DHT22;3324;50.796;7.228;2023-06-10T02:00:58;19.10;99.90
6581;DHT22;3324;50.796;7.228;2023-06-10T02:03:23;19.10;99.90
6581;DHT22;3324;50.796;7.228;2023-06-10T02:05:49;19.10;99.90
6581;DHT22;3324;50.796;7.228;2023-06-10T02:08:15;19.10;99.90
6581;DHT22;3324;50.796;7.228;2023-06-10T02:10:40;19.10;99.90
6581;DHT22;3324;50.796;7.228;2023-06-10T02:13:06;19.10;99.90
6581;DHT22;3324;50.796;7.228;2023-06-10T02:15:31;19.00;99.90
6581;DHT22;3324;50.796;7.228;2023-06-10T02:17:57;19.00;99.90
6581;DHT22;3324;50.796;7.228;2023-06-10T02:20:23;19.00;99.90
6581;DHT22;3324;50.796;7.228;2023-06-10T02:22:48;18.90;99.90
6581;DHT22;3324;50.796;7.228;2023-06-10T02:25:14;18.90;99.90
6581;DHT22;3324;50.796;7.228;2023-06-10T02:27:40;18.80;99.90
6581;DHT22;3324;50.796;7.228;2023-06-10T02:30:06;18.80;99.90
6581;DHT22;3324;50.796;7.228;2023-06-10T02:32:32;18.80;99.90
6581;DHT22;3324;50.796;7.228;2023-06-10T02:34:57;18.80;99.90
6581;DHT22;3324;50.796;7.228;2023-06-10T02:37:25;18.80;99.90
6581;DHT22;3324;50.796;7.228;2023-06-10T02:39:50;18.80;99.90
6581;DHT22;3324;50.796;7.228;2023-06-10T02:42:16;18.80;99.90
6581;DHT22;3324;50.796;7.228;2023-06-10T02:44:42;18.70;99.90
6581;DHT22;3324;50.796;7.228;2023-06-10T02:47:07;18.70;99.90
6581;DHT22;3324;50.796;7.228;2023-06-10T02:49:33;18.60;99.90
6581;DHT22;3324;50.796;7.228;2023-06-10T02:51:58;18.50;99.90
6581;DHT22;3324;50.796;7.228;2023-06-10T02:54:24;18.40;99.90
6581;DHT22;3324;50.796;7.228;2023-06-10T02:56:51;18.30;99.90
6581;DHT22;3324;50.796;7.228;2023-06-10T02:59:18;18.30;99.90
6581;DHT22;3324;50.796;7.228;2023-06-10T03:01:43;18.10;99.90
6581;DHT22;3324;50.796;7.228;2023-06-10T03:04:09;18.20;99.90
6581;DHT22;3324;50.796;7.228;2023-06-10T03:06:35;18.10;99.90
6581;DHT22;3324;50.796;7.228;2023-06-10T03:09:01;18.10;99.90
6581;DHT22;3324;50.796;7.228;2023-06-10T03:11:29;18.10;99.90
6581;DHT22;3324;50.796;7.228;2023-06-10T03:13:54;18.00;99.90
6581;DHT22;3324;50.796;7.228;2023-06-10T03:16:20;18.00;99.90
6581;DHT22;3324;50.796;7.228;2023-06-10T03:18:46;17.90;99.90
6581;DHT22;3324;50.796;7.228;2023-06-10T03:21:11;17.90;99.90
6581;DHT22;3324;50.796;7.228;2023-06-10T03:23:37;17.90;99.90
6581;DHT22;3324;50.796;7.228;2023-06-10T03:26:03;17.90;99.90
6581;DHT22;3324;50.796;7.228;2023-06-10T03:31:51;17.90;99.90
6581;DHT22;3324;50.796;7.228;2023-06-10T03:34:17;17.90;99.90
6581;DHT22;3324;50.796;7.228;2023-06-10T03:36:43;17.90;99.90
6581;DHT22;3324;50.796;7.228;2023-06-10T03:39:08;17.90;99.90
6581;DHT22;3324;50.796;7.228;2023-06-10T03:41:34;17.90;99.90
6581;DHT22;3324;50.796;7.228;2023-06-10T03:44:00;17.90;99.90
6581;DHT22;3324;50.796;7.228;2023-06-10T03:46:26;18.00;99.90
6581;DHT22;3324;50.796;7.228;2023-06-10T03:48:51;18.00;99.90
6581;DHT22;3324;50.796;7.228;2023-06-10T03:51:17;18.00;99.90
6581;DHT22;3324;50.796;7.228;2023-06-10T03:53:43;18.00;99.90
6581;DHT22;3324;50.796;7.228;2023-06-10T03:56:08;18.00;99.90
6581;DHT22;3324;50.796;7.228;2023-06-10T03:58:34;18.00;99.90
6581;DHT22;3324;50.796;7.228;2023-06-10T04:01:00;18.00;99.90
6581;DHT22;3324;50.796;7.228;2023-06-10T04:03:25;18.00;99.90
6581;DHT22;3324;50.796;7.228;2023-06-10T04:05:51;17.90;99.90
6581;DHT22;3324;50.796;7.228;2023-06-10T04:08:17;18.00;99.90
6581;DHT22;3324;50.796;7.228;2023-06-10T04:10:43;18.10;99.90
6581;DHT22;3324;50.796;7.228;2023-06-10T04:13:08;18.10;99.90
6581;DHT22;3324;50.796;7.228;2023-06-10T04:15:35;18.20;99.90
6581;DHT22;3324;50.796;7.228;2023-06-10T04:18:00;18.20;99.90
6581;DHT22;3324;50.796;7.228;2023-06-10T04:20:28;18.30;99.90
6581;DHT22;3324;50.796;7.228;2023-06-10T04:22:54;18.40;99.90
6581;DHT22;3324;50.796;7.228;2023-06-10T04:25:20;18.40;99.90
6581;DHT22;3324;50.796;7.228;2023-06-10T04:27:45;18.50;99.90
6581;DHT22;3324;50.796;7.228;2023-06-10T04:30:12;18.60;99.90
6581;DHT22;3324;50.796;7.228;2023-06-10T04:32:37;18.60;99.90
6581;DHT22;3324;50.796;7.228;2023-06-10T04:35:03;18.60;99.90
6581;DHT22;3324;50.796;7.228;2023-06-10T04:37:29;18.70;99.90
6581;DHT22;3324;50.796;7.228;2023-06-10T04:39:54;18.80;99.90
6581;DHT22;3324;50.796;7.228;2023-06-10T04:42:20;18.90;99.90
6581;DHT22;3324;50.796;7.228;2023-06-10T04:44:45;18.90;99.90
6581;DHT22;3324;50.796;7.228;2023-06-10T04:47:11;19.00;99.90
6581;DHT22;3324;50.796;7.228;2023-06-10T04:49:37;19.10;99.90
6581;DHT22;3324;50.796;7.228;2023-06-10T04:52:03;19.10;99.90
6581;DHT22;3324;50.796;7.228;2023-06-10T04:54:30;19.20;99.90
6581;DHT22;3324;50.796;7.228;2023-06-10T04:56:55;19.30;99.90
6581;DHT22;3324;50.796;7.228;2023-06-10T04:59:21;19.30;99.90
6581;DHT22;3324;50.796;7.228;2023-06-10T05:01:46;19.40;99.90
6581;DHT22;3324;50.796;7.228;2023-06-10T05:04:12;19.50;99.90
6581;DHT22;3324;50.796;7.228;2023-06-10T05:06:37;19.60;99.90
6581;DHT22;3324;50.796;7.228;2023-06-10T05:09:03;19.70;99.90
6581;DHT22;3324;50.796;7.228;2023-06-10T05:11:28;19.80;99.90
6581;DHT22;3324;50.796;7.228;2023-06-10T05:13:54;19.90;99.90
6581;DHT22;3324;50.796;7.228;2023-06-10T05:16:20;20.00;99.90
6581;DHT22;3324;50.796;7.228;2023-06-10T05:18:45;20.10;99.90
6581;DHT22;3324;50.796;7.228;2023-06-10T05:21:11;20.10;99.90
6581;DHT22;3324;50.796;7.228;2023-06-10T05:23:37;20.20;99.90
6581;DHT22;3324;50.796;7.228;2023-06-10T05:26:02;20.30;99.90
6581;DHT22;3324;50.796;7.228;2023-06-10T05:31:49;20.30;99.90
6581;DHT22;3324;50.796;7.228;2023-06-10T05:34:15;20.20;99.90
6581;DHT22;3324;50.796;7.228;2023-06-10T05:36:41;20.40;99.90
6581;DHT22;3324;50.796;7.228;2023-06-10T05:39:06;20.40;99.90
6581;DHT22;3324;50.796;7.228;2023-06-10T05:41:32;20.40;99.90
6581;DHT22;3324;50.796;7.228;2023-06-10T05:43:57;20.50;99.90
6581;DHT22;3324;50.796;7.228;2023-06-10T05:46:23;20.60;99.90
6581;DHT22;3324;50.796;7.228;2023-06-10T05:48:49;20.60;99.90
6581;DHT22;3324;50.796;7.228;2023-06-10T05:51:14;20.60;99.90
6581;DHT22;3324;50.796;7.228;2023-06-10T05:53:40;20.70;99.90
6581;DHT22;3324;50.796;7.228;2023-06-10T05:56:06;20.70;99.90
6581;DHT22;3324;50.796;7.228;2023-06-10T05:58:31;20.80;99.90
6581;DHT22;3324;50.796;7.228;2023-06-10T06:00:57;20.90;99.90
6581;DHT22;3324;50.796;7.228;2023-06-10T06:03:22;21.00;99.90
6581;DHT22;3324;50.796;7.228;2023-06-10T06:05:48;21.10;99.90
6581;DHT22;3324;50.796;7.228;2023-06-10T06:08:13;21.20;99.90
6581;DHT22;3324;50.796;7.228;2023-06-10T06:10:42;21.40;99.90
6581;DHT22;3324;50.796;7.228;2023-06-10T06:13:08;21.50;99.90
6581;DHT22;3324;50.796;7.228;2023-06-10T06:15:33;21.60;99.90
6581;DHT22;3324;50.796;7.228;2023-06-10T06:17:59;21.60;99.90
6581;DHT22;3324;50.796;7.228;2023-06-10T06:20:25;21.70;99.90
6581;DHT22;3324;50.796;7.228;2023-06-10T06:22:50;21.80;99.90
6581;DHT22;3324;50.796;7.228;2023-06-10T06:25:16;21.90;99.90
6581;DHT22;3324;50.796;7.228;2023-06-10T06:27:41;22.00;99.90
6581;DHT22;3324;50.796;7.228;2023-06-10T06:30:07;22.20;99.90
6581;DHT22;3324;50.796;7.228;2023-06-10T06:32:33;22.30;99.90
6581;DHT22;3324;50.796;7.228;2023-06-10T06:34:58;22.50;99.90
6581;DHT22;3324;50.796;7.228;2023-06-10T06:37:25;22.60;99.90
6581;DHT22;3324;50.796;7.228;2023-06-10T06:39:51;22.60;99.90
6581;DHT22;3324;50.796;7.228;2023-06-10T06:42:17;22.80;99.90
6581;DHT22;3324;50.796;7.228;2023-06-10T06:44:43;22.90;99.90
6581;DHT22;3324;50.796;7.228;2023-06-10T06:47:08;23.00;99.90
6581;DHT22;3324;50.796;7.228;2023-06-10T06:49:34;23.10;99.90
6581;DHT22;3324;50.796;7.228;2023-06-10T06:52:01;23.20;99.90
6581;DHT22;3324;50.796;7.228;2023-06-10T06:54:26;23.30;99.90
6581;DHT22;3324;50.796;7.228;2023-06-10T06:56:52;23.40;99.90
6581;DHT22;3324;50.796;7.228;2023-06-10T06:59:17;23.50;99.90
6581;DHT22;3324;50.796;7.228;2023-06-10T07:01:45;23.60;99.90
6581;DHT22;3324;50.796;7.228;2023-06-10T07:04:11;23.70;99.90
6581;DHT22;3324;50.796;7.228;2023-06-10T07:06:37;23.80;99.90
6581;DHT22;3324;50.796;7.228;2023-06-10T07:09:04;24.00;99.90
6581;DHT22;3324;50.796;7.228;2023-06-10T07:11:29;24.00;99.90
6581;DHT22;3324;50.796;7.228;2023-06-10T07:13:55;24.20;99.90
6581;DHT22;3324;50.796;7.228;2023-06-10T07:16:21;24.20;99.90
6581;DHT22;3324;50.796;7.228;2023-06-10T07:18:47;24.40;99.90
6581;DHT22;3324;50.796;7.228;2023-06-10T07:21:13;24.40;99.90
6581;DHT22;3324;50.796;7.228;2023-06-10T07:23:41;24.50;99.90
6581;DHT22;3324;50.796;7.228;2023-06-10T07:26:07;24.60;99.90
6581;DHT22;3324;50.796;7.228;2023-06-10T07:31:55;24.70;99.90
6581;DHT22;3324;50.796;7.228;2023-06-10T07:34:20;24.80;99.90
6581;DHT22;3324;50.796;7.228;2023-06-10T07:36:46;24.90;99.90
6581;DHT22;3324;50.796;7.228;2023-06-10T07:39:11;25.00;99.90
6581;DHT22;3324;50.796;7.228;2023-06-10T07:41:37;25.20;99.90
6581;DHT22;3324;50.796;7.228;2023-06-10T07:44:03;25.30;99.90
6581;DHT22;3324;50.796;7.228;2023-06-10T07:46:28;25.40;99.90
6581;DHT22;3324;50.796;7.228;2023-06-10T07:48:54;25.50;99.90
6581;DHT22;3324;50.796;7.228;2023-06-10T07:51:20;25.60;99.90
6581;DHT22;3324;50.796;7.228;2023-06-10T07:53:46;25.70;99.90
6581;DHT22;3324;50.796;7.228;2023-06-10T07:56:12;25.70;99.90
6581;DHT22;3324;50.796;7.228;2023-06-10T07:58:37;25.80;99.90
6581;DHT22;3324;50.796;7.228;2023-06-10T08:01:03;26.00;99.90
6581;DHT22;3324;50.796;7.228;2023-06-10T08:03:29;26.10;99.90
6581;DHT22;3324;50.796;7.228;2023-06-10T08:05:54;26.20;99.90
6581;DHT22;3324;50.796;7.228;2023-06-10T08:08:20;26.30;99.90
6581;DHT22;3324;50.796;7.228;2023-06-10T08:10:46;26.40;99.90
6581;DHT22;3324;50.796;7.228;2023-06-10T08:13:11;26.50;99.90
6581;DHT22;3324;50.796;7.228;2023-06-10T08:15:37;26.60;99.90
6581;DHT22;3324;50.796;7.228;2023-06-10T08:18:03;26.70;99.90
6581;DHT22;3324;50.796;7.228;2023-06-10T08:20:29;26.80;99.90
6581;DHT22;3324;50.796;7.228;2023-06-10T08:22:54;27.00;98.70
6581;DHT22;3324;50.796;7.228;2023-06-10T08:25:20;27.10;99.90
6581;DHT22;3324;50.796;7.228;2023-06-10T08:27:47;27.10;99.90
6581;DHT22;3324;50.796;7.228;2023-06-10T08:30:13;27.20;99.90
6581;DHT22;3324;50.796;7.228;2023-06-10T08:32:39;27.30;99.80
6581;DHT22;3324;50.796;7.228;2023-06-10T08:35:05;27.40;98.90
6581;DHT22;3324;50.796;7.228;2023-06-10T08:37:31;27.50;99.20
6581;DHT22;3324;50.796;7.228;2023-06-10T08:39:56;27.50;98.90
6581;DHT22;3324;50.796;7.228;2023-06-10T08:44:56;27.80;97.70
6581;DHT22;3324;50.796;7.228;2023-06-10T08:47:23;27.80;98.70
6581;DHT22;3324;50.796;7.228;2023-06-10T08:49:50;27.80;97.10
6581;DHT22;3324;50.796;7.228;2023-06-10T08:52:19;27.90;96.70
6581;DHT22;3324;50.796;7.228;2023-06-10T08:55:15;28.00;96.10
6581;DHT22;3324;50.796;7.228;2023-06-10T08:57:41;28.20;97.80
6581;DHT22;3324;50.796;7.228;2023-06-10T09:00:08;28.30;97.10
6581;DHT22;3324;50.796;7.228;2023-06-10T09:02:34;28.40;96.00
6581;DHT22;3324;50.796;7.228;2023-06-10T09:05:02;28.40;95.60
6581;DHT22;3324;50.796;7.228;2023-06-10T09:07:29;28.50;95.90
6581;DHT22;3324;50.796;7.228;2023-06-10T09:09:57;28.60;94.70
6581;DHT22;3324;50.796;7.228;2023-06-10T09:12:23;28.80;95.30
6581;DHT22;3324;50.796;7.228;2023-06-10T09:14:48;28.90;94.50
6581;DHT22;3324;50.796;7.228;2023-06-10T09:17:14;28.90;94.10
6581;DHT22;3324;50.796;7.228;2023-06-10T09:19:41;28.90;94.70
6581;DHT22;3324;50.796;7.228;2023-06-10T09:22:07;29.00;93.70
6581;DHT22;3324;50.796;7.228;2023-06-10T09:24:33;29.10;93.50
6581;DHT22;3324;50.796;7.228;2023-06-10T09:27:06;29.20;93.30
6581;DHT22;3324;50.796;7.228;2023-06-10T09:29:45;29.40;93.00
6581;DHT22;3324;50.796;7.228;2023-06-10T09:32:12;29.40;92.90
6581;DHT22;3324;50.796;7.228;2023-06-10T09:34:39;29.50;91.80
6581;DHT22;3324;50.796;7.228;2023-06-10T09:37:05;29.60;90.80
6581;DHT22;3324;50.796;7.228;2023-06-10T09:39:31;29.60;90.50
6581;DHT22;3324;50.796;7.228;2023-06-10T09:41:56;29.70;90.40
6581;DHT22;3324;50.796;7.228;2023-06-10T09:44:22;29.60;90.20
6581;DHT22;3324;50.796;7.228;2023-06-10T09:46:49;29.80;90.50
6581;DHT22;3324;50.796;7.228;2023-06-10T09:49:16;30.00;91.40
6581;DHT22;3324;50.796;7.228;2023-06-10T09:51:50;30.10;90.20
6581;DHT22;3324;50.796;7.228;2023-06-10T09:54:16;30.20;87.30
6581;DHT22;3324;50.796;7.228;2023-06-10T09:56:41;30.30;87.40
6581;DHT22;3324;50.796;7.228;2023-06-10T09:59:08;30.30;85.40
6581;DHT22;3324;50.796;7.228;2023-06-10T10:01:34;30.40;85.80
6581;DHT22;3324;50.796;7.228;2023-06-10T10:04:00;30.40;83.00
6581;DHT22;3324;50.796;7.228;2023-06-10T10:06:27;30.50;84.90
6581;DHT22;3324;50.796;7.228;2023-06-10T10:08:54;30.50;84.50
6581;DHT22;3324;50.796;7.228;2023-06-10T10:11:21;30.50;81.10
6581;DHT22;3324;50.796;7.228;2023-06-10T10:13:49;30.50;82.60
6581;DHT22;3324;50.796;7.228;2023-06-10T10:16:18;30.60;81.10
6581;DHT22;3324;50.796;7.228;2023-06-10T10:19:43;30.70;80.70
6581;DHT22;3324;50.796;7.228;2023-06-10T10:21:54;30.80;73.60
6581;DHT22;3324;50.796;7.228;2023-06-10T10:24:29;30.80;76.00
6581;DHT22;3324;50.796;7.228;2023-06-10T10:26:58;31.00;74.90
6581;DHT22;3324;50.796;7.228;2023-06-10T10:29:29;30.90;75.20
6581;DHT22;3324;50.796;7.228;2023-06-10T10:31:56;30.90;74.90
6581;DHT22;3324;50.796;7.228;2023-06-10T10:34:41;30.90;74.20
6581;DHT22;3324;50.796;7.228;2023-06-10T10:37:08;31.10;75.70
6581;DHT22;3324;50.796;7.228;2023-06-10T10:39:36;31.20;75.00
6581;DHT22;3324;50.796;7.228;2023-06-10T10:42:04;31.40;74.10
6581;DHT22;3324;50.796;7.228;2023-06-10T10:44:30;31.30;73.70
6581;DHT22;3324;50.796;7.228;2023-06-10T10:46:56;31.40;70.20
6581;DHT22;3324;50.796;7.228;2023-06-10T10:49:25;31.50;72.30
6581;DHT22;3324;50.796;7.228;2023-06-10T10:52:01;31.30;72.10
6581;DHT22;3324;50.796;7.228;2023-06-10T10:54:32;30.90;72.20
6581;DHT22;3324;50.796;7.228;2023-06-10T10:59:54;29.90;73.30
6581;DHT22;3324;50.796;7.228;2023-06-10T11:02:44;30.00;73.70
6581;DHT22;3324;50.796;7.228;2023-06-10T11:07:58;30.60;72.90
6581;DHT22;3324;50.796;7.228;2023-06-10T11:10:32;30.80;70.80
6581;DHT22;3324;50.796;7.228;2023-06-10T11:12:58;31.10;68.20
6581;DHT22;3324;50.796;7.228;2023-06-10T11:15:24;31.20;66.40
6581;DHT22;3324;50.796;7.228;2023-06-10T11:18:09;31.40;67.70
6581;DHT22;3324;50.796;7.228;2023-06-10T11:23:42;31.50;64.80
6581;DHT22;3324;50.796;7.228;2023-06-10T11:31:26;31.20;60.00
6581;DHT22;3324;50.796;7.228;2023-06-10T11:33:56;31.30;60.80
6581;DHT22;3324;50.796;7.228;2023-06-10T11:36:23;31.30;59.60
6581;DHT22;3324;50.796;7.228;2023-06-10T11:38:50;31.20;60.90
6581;DHT22;3324;50.796;7.228;2023-06-10T11:41:17;31.10;61.30
6581;DHT22;3324;50.796;7.228;2023-06-10T11:43:46;31.10;59.50
6581;DHT22;3324;50.796;7.228;2023-06-10T11:46:13;31.20;59.70
6581;DHT22;3324;50.796;7.228;2023-06-10T11:48:39;31.20;58.70
6581;DHT22;3324;50.796;7.228;2023-06-10T11:51:09;31.40;61.20
6581;DHT22;3324;50.796;7.228;2023-06-10T11:53:35;31.70;58.90
6581;DHT22;3324;50.796;7.228;2023-06-10T11:56:00;31.70;58.70
6581;DHT22;3324;50.796;7.228;2023-06-10T11:58:26;31.80;58.10
6581;DHT22;3324;50.796;7.228;2023-06-10T12:00:53;31.70;56.70
6581;DHT22;3324;50.796;7.228;2023-06-10T12:03:20;31.60;57.90
6581;DHT22;3324;50.796;7.228;2023-06-10T12:06:03;31.70;57.10
6581;DHT22;3324;50.796;7.228;2023-06-10T12:08:29;31.80;57.70
6581;DHT22;3324;50.796;7.228;2023-06-10T12:10:55;31.80;57.10
6581;DHT22;3324;50.796;7.228;2023-06-10T12:13:21;31.90;58.50
6581;DHT22;3324;50.796;7.228;2023-06-10T12:15:49;32.10;57.70
6581;DHT22;3324;50.796;7.228;2023-06-10T12:18:19;32.10;57.30
6581;DHT22;3324;50.796;7.228;2023-06-10T12:20:45;32.30;57.20
6581;DHT22;3324;50.796;7.228;2023-06-10T12:23:11;32.30;55.40
6581;DHT22;3324;50.796;7.228;2023-06-10T12:25:37;32.30;56.30
6581;DHT22;3324;50.796;7.228;2023-06-10T12:28:03;32.30;56.50
6581;DHT22;3324;50.796;7.228;2023-06-10T12:30:30;32.30;55.80
6581;DHT22;3324;50.796;7.228;2023-06-10T12:32:56;32.10;55.40
6581;DHT22;3324;50.796;7.228;2023-06-10T12:35:26;32.00;55.80
6581;DHT22;3324;50.796;7.228;2023-06-10T12:38:04;32.00;55.00
6581;DHT22;3324;50.796;7.228;2023-06-10T12:40:32;32.10;55.60
6581;DHT22;3324;50.796;7.228;2023-06-10T12:42:59;32.10;56.00
6581;DHT22;3324;50.796;7.228;2023-06-10T12:45:35;32.10;55.50
6581;DHT22;3324;50.796;7.228;2023-06-10T12:48:19;32.00;54.20
6581;DHT22;3324;50.796;7.228;2023-06-10T12:50:54;32.00;56.00
6581;DHT22;3324;50.796;7.228;2023-06-10T12:53:21;32.00;54.50
6581;DHT22;3324;50.796;7.228;2023-06-10T12:55:48;32.10;54.20
6581;DHT22;3324;50.796;7.228;2023-06-10T12:58:14;32.00;55.30
6581;DHT22;3324;50.796;7.228;2023-06-10T13:00:40;32.00;55.60
6581;DHT22;3324;50.796;7.228;2023-06-10T13:03:08;32.00;55.20
6581;DHT22;3324;50.796;7.228;2023-06-10T13:05:35;31.90;55.20
6581;DHT22;3324;50.796;7.228;2023-06-10T13:08:04;31.90;54.90
6581;DHT22;3324;50.796;7.228;2023-06-10T13:10:30;31.90;54.00
6581;DHT22;3324;50.796;7.228;2023-06-10T13:12:56;31.90;54.50
6581;DHT22;3324;50.796;7.228;2023-06-10T13:15:22;31.80;54.10
6581;DHT22;3324;50.796;7.228;2023-06-10T13:17:47;31.80;55.40
6581;DHT22;3324;50.796;7.228;2023-06-10T13:20:15;31.80;55.00
6581;DHT22;3324;50.796;7.228;2023-06-10T13:22:41;31.80;55.60
6581;DHT22;3324;50.796;7.228;2023-06-10T13:25:07;31.80;55.30
6581;DHT22;3324;50.796;7.228;2023-06-10T13:27:34;31.70;56.10
6581;DHT22;3324;50.796;7.228;2023-06-10T13:30:00;31.80;53.30
6581;DHT22;3324;50.796;7.228;2023-06-10T13:32:26;31.90;53.20
6581;DHT22;3324;50.796;7.228;2023-06-10T13:34:52;31.90;54.20
6581;DHT22;3324;50.796;7.228;2023-06-10T13:37:18;31.80;53.00
6581;DHT22;3324;50.796;7.228;2023-06-10T13:39:45;31.70;53.60
6581;DHT22;3324;50.796;7.228;2023-06-10T13:42:14;31.50;53.30
6581;DHT22;3324;50.796;7.228;2023-06-10T13:44:39;31.40;53.60
6581;DHT22;3324;50.796;7.228;2023-06-10T13:47:05;31.20;54.30
6581;DHT22;3324;50.796;7.228;2023-06-10T13:49:32;31.40;55.20
6581;DHT22;3324;50.796;7.228;2023-06-10T13:51:57;31.20;56.10
6581;DHT22;3324;50.796;7.228;2023-06-10T13:54:23;31.30;55.80
6581;DHT22;3324;50.796;7.228;2023-06-10T13:56:49;31.40;54.70
6581;DHT22;3324;50.796;7.228;2023-06-10T13:59:14;31.40;55.80
6581;DHT22;3324;50.796;7.228;2023-06-10T14:01:40;31.60;57.50
6581;DHT22;3324;50.796;7.228;2023-06-10T14:04:06;31.70;56.10
6581;DHT22;3324;50.796;7.228;2023-06-10T14:06:33;31.60;54.70
6581;DHT22;3324;50.796;7.228;2023-06-10T14:08:59;31.60;54.90
6581;DHT22;3324;50.796;7.228;2023-06-10T14:11:25;31.60;54.90
6581;DHT22;3324;50.796;7.228;2023-06-10T14:13:51;31.60;53.40
6581;DHT22;3324;50.796;7.228;2023-06-10T14:16:16;31.50;56.20
6581;DHT22;3324;50.796;7.228;2023-06-10T14:18:42;31.40;56.40
6581;DHT22;3324;50.796;7.228;2023-06-10T14:21:07;31.10;55.90
6581;DHT22;3324;50.796;7.228;2023-06-10T14:23:33;30.90;55.70
6581;DHT22;3324;50.796;7.228;2023-06-10T14:25:59;30.90;55.80
6581;DHT22;3324;50.796;7.228;2023-06-10T14:28:24;30.80;55.30
6581;DHT22;3324;50.796;7.228;2023-06-10T14:30:51;30.70;56.20
6581;DHT22;3324;50.796;7.228;2023-06-10T14:33:17;30.70;56.40
6581;DHT22;3324;50.796;7.228;2023-06-10T14:35:43;30.70;56.50
6581;DHT22;3324;50.796;7.228;2023-06-10T14:38:09;30.70;56.30
6581;DHT22;3324;50.796;7.228;2023-06-10T14:40:35;30.70;55.60
6581;DHT22;3324;50.796;7.228;2023-06-10T14:43:00;30.70;55.20
6581;DHT22;3324;50.796;7.228;2023-06-10T14:45:29;30.70;55.20
6581;DHT22;3324;50.796;7.228;2023-06-10T14:47:55;30.70;54.60
6581;DHT22;3324;50.796;7.228;2023-06-10T14:50:20;30.70;54.80
6581;DHT22;3324;50.796;7.228;2023-06-10T14:52:46;30.70;54.80
6581;DHT22;3324;50.796;7.228;2023-06-10T14:55:11;30.70;54.00
6581;DHT22;3324;50.796;7.228;2023-06-10T14:57:37;30.60;56.30
6581;DHT22;3324;50.796;7.228;2023-06-10T15:00:03;30.50;55.40
6581;DHT22;3324;50.796;7.228;2023-06-10T15:02:29;30.50;54.40
6581;DHT22;3324;50.796;7.228;2023-06-10T15:04:54;30.40;53.60
6581;DHT22;3324;50.796;7.228;2023-06-10T15:07:20;30.30;53.10
6581;DHT22;3324;50.796;7.228;2023-06-10T15:09:45;30.10;54.00
6581;DHT22;3324;50.796;7.228;2023-06-10T15:12:11;30.00;53.80
6581;DHT22;3324;50.796;7.228;2023-06-10T15:14:36;30.00;53.10
6581;DHT22;3324;50.796;7.228;2023-06-10T15:17:02;30.00;53.50
6581;DHT22;3324;50.796;7.228;2023-06-10T15:19:28;29.90;54.20
6581;DHT22;3324;50.796;7.228;2023-06-10T15:21:54;29.90;54.00
6581;DHT22;3324;50.796;7.228;2023-06-10T15:24:19;30.00;55.00
6581;DHT22;3324;50.796;7.228;2023-06-10T15:26:45;30.00;55.30
6581;DHT22;3324;50.796;7.228;2023-06-10T15:29:11;30.00;54.80
6581;DHT22;3324;50.796;7.228;2023-06-10T15:31:36;30.10;55.30
6581;DHT22;3324;50.796;7.228;2023-06-10T15:34:02;30.00;54.90
6581;DHT22;3324;50.796;7.228;2023-06-10T15:36:29;30.00;55.10
6581;DHT22;3324;50.796;7.228;2023-06-10T15:39:00;30.00;54.90
6581;DHT22;3324;50.796;7.228;2023-06-10T15:41:26;30.00;54.00
6581;DHT22;3324;50.796;7.228;2023-06-10T15:43:52;29.90;52.70
6581;DHT22;3324;50.796;7.228;2023-06-10T15:46:17;29.70;51.80
6581;DHT22;3324;50.796;7.228;2023-06-10T15:48:43;29.60;53.50
6581;DHT22;3324;50.796;7.228;2023-06-10T15:51:08;29.60;55.10
6581;DHT22;3324;50.796;7.228;2023-06-10T15:53:34;29.60;56.10
6581;DHT22;3324;50.796;7.228;2023-06-10T15:56:01;29.60;55.50
6581;DHT22;3324;50.796;7.228;2023-06-10T15:58:26;29.50;55.90
6581;DHT22;3324;50.796;7.228;2023-06-10T16:00:52;29.40;56.20
6581;DHT22;3324;50.796;7.228;2023-06-10T16:03:18;29.50;57.30
6581;DHT22;3324;50.796;7.228;2023-06-10T16:05:43;29.40;57.20
6581;DHT22;3324;50.796;7.228;2023-06-10T16:08:09;29.40;57.80
6581;DHT22;3324;50.796;7.228;2023-06-10T16:10:34;29.50;57.80
6581;DHT22;3324;50.796;7.228;2023-06-10T16:13:00;29.50;57.00
6581;DHT22;3324;50.796;7.228;2023-06-10T16:15:27;29.40;56.50
6581;DHT22;3324;50.796;7.228;2023-06-10T16:17:53;29.30;55.90
6581;DHT22;3324;50.796;7.228;2023-06-10T16:20:19;29.20;56.50
6581;DHT22;3324;50.796;7.228;2023-06-10T16:22:44;29.20;57.20
6581;DHT22;3324;50.796;7.228;2023-06-10T16:25:10;29.10;57.00
6581;DHT22;3324;50.796;7.228;2023-06-10T16:27:35;29.10;57.00
6581;DHT22;3324;50.796;7.228;2023-06-10T16:30:01;28.90;57.10
6581;DHT22;3324;50.796;7.228;2023-06-10T16:32:27;28.90;58.00